createdAt,value
2022-11-15T00:00:31.731Z,10.30
2022-11-15T00:02:58.307Z,7.17
2022-11-15T00:05:25.170Z,9.67
2022-11-15T00:07:56.210Z,9.93
2022-11-15T00:10:23.130Z,9.13
2022-11-15T00:12:49.619Z,10.77
2022-11-15T00:15:16.273Z,9.33
2022-11-15T00:17:42.871Z,9.97
2022-11-15T00:20:09.968Z,7.57
2022-11-15T00:22:36.707Z,12.70
2022-11-15T00:25:04.459Z,11.50
2022-11-15T00:27:31.032Z,9.07
2022-11-15T00:29:57.601Z,11.53
2022-11-15T00:32:24.113Z,10.20
2022-11-15T00:34:50.772Z,9.30
2022-11-15T00:37:17.335Z,8.83
2022-11-15T00:39:43.950Z,10.60
2022-11-15T00:42:10.488Z,7.70
2022-11-15T00:44:37.083Z,10.97
2022-11-15T00:47:06.295Z,8.27
2022-11-15T00:49:32.944Z,10.13
2022-11-15T00:51:59.448Z,8.30
2022-11-15T00:54:25.920Z,7.47
2022-11-15T00:56:52.470Z,7.57
2022-11-15T00:59:19.003Z,5.90
2022-11-15T01:01:45.528Z,6.97
2022-11-15T01:04:12.082Z,8.37
2022-11-15T01:06:38.647Z,9.57
2022-11-15T01:09:05.227Z,7.53
2022-11-15T01:11:32.002Z,7.70
2022-11-15T01:13:58.520Z,7.30
2022-11-15T01:16:25.152Z,8.00
2022-11-15T01:18:51.652Z,10.40
2022-11-15T01:21:19.690Z,9.53
2022-11-15T01:23:46.267Z,9.90
2022-11-15T01:26:15.303Z,8.20
2022-11-15T01:28:42.881Z,8.33
2022-11-15T01:31:17.043Z,9.40
2022-11-15T01:33:44.026Z,7.43
2022-11-15T01:36:22.791Z,7.73
2022-11-15T01:38:56.475Z,7.67
2022-11-15T01:41:26.352Z,12.57
2022-11-15T01:43:55.225Z,9.57
2022-11-15T01:46:35.140Z,8.03
2022-11-15T01:49:07.297Z,7.40
2022-11-15T01:51:34.490Z,8.20
2022-11-15T01:54:05.392Z,6.97
2022-11-15T01:56:34.471Z,11.90
2022-11-15T01:59:04.116Z,9.00
2022-11-15T02:01:32.132Z,6.50
2022-11-15T02:04:26.250Z,6.33
2022-11-15T02:06:52.946Z,9.20
2022-11-15T02:09:20.015Z,8.07
2022-11-15T02:11:47.352Z,6.93
2022-11-15T02:14:15.655Z,6.60
2022-11-15T02:16:45.057Z,8.73
2022-11-15T02:19:32.977Z,8.60
2022-11-15T02:22:30.539Z,10.60
2022-11-15T02:25:15.313Z,7.20
2022-11-15T02:28:06.100Z,10.87
2022-11-15T02:30:35.665Z,9.83
2022-11-15T02:33:23.001Z,10.20
2022-11-15T02:35:59.825Z,6.73
2022-11-15T02:38:35.539Z,10.90
2022-11-15T02:41:08.512Z,8.17
2022-11-15T02:43:59.073Z,9.87
2022-11-15T02:46:54.761Z,7.60
2022-11-15T02:49:21.323Z,8.60
2022-11-15T02:51:49.641Z,8.13
2022-11-15T02:54:20.996Z,7.77
2022-11-15T02:56:47.780Z,9.03
2022-11-15T02:59:48.426Z,9.37
2022-11-15T03:02:43.475Z,11.70
2022-11-15T03:05:35.854Z,6.87
2022-11-15T03:08:18.516Z,9.17
2022-11-15T03:10:53.018Z,9.57
2022-11-15T03:13:31.121Z,8.67
2022-11-15T03:16:05.244Z,8.53
2022-11-15T03:18:37.392Z,9.43
2022-11-15T03:21:07.048Z,8.70
2022-11-15T03:23:34.448Z,9.07
2022-11-15T03:26:02.045Z,8.53
2022-11-15T03:28:38.063Z,11.93
2022-11-15T03:31:25.225Z,8.60
2022-11-15T03:33:54.559Z,7.67
2022-11-15T03:36:22.857Z,10.43
2022-11-15T03:38:49.462Z,14.23
2022-11-15T03:41:36.470Z,10.20
2022-11-15T03:44:17.104Z,6.60
2022-11-15T03:47:03.843Z,10.67
2022-11-15T03:49:35.077Z,9.80
2022-11-15T03:52:03.774Z,8.30
2022-11-15T03:54:30.627Z,9.40
2022-11-15T03:56:57.392Z,10.23
2022-11-15T03:59:24.107Z,8.00
2022-11-15T04:01:50.727Z,9.17
2022-11-15T04:04:17.234Z,9.30
2022-11-15T04:06:43.810Z,7.97
2022-11-15T04:09:10.285Z,10.33
2022-11-15T04:11:36.989Z,5.80
2022-11-15T04:14:03.525Z,6.70
2022-11-15T04:16:30.139Z,6.80
2022-11-15T04:19:15.212Z,6.90
2022-11-15T04:22:00.032Z,8.07
2022-11-15T04:24:26.609Z,6.43
2022-11-15T04:26:53.163Z,7.30
2022-11-15T04:29:37.834Z,7.47
2022-11-15T04:32:05.990Z,6.70
2022-11-15T04:34:33.398Z,10.07
2022-11-15T04:37:13.192Z,6.70
2022-11-15T04:39:43.330Z,9.10
2022-11-15T04:42:10.527Z,7.87
2022-11-15T04:44:37.137Z,9.87
2022-11-15T04:47:04.207Z,7.50
2022-11-15T04:49:30.689Z,7.67
2022-11-15T04:51:57.315Z,5.67
2022-11-15T04:54:23.908Z,7.10
2022-11-15T04:56:50.417Z,6.77
2022-11-15T04:59:17.098Z,9.30
2022-11-15T05:01:45.006Z,7.93
2022-11-15T05:04:20.759Z,8.80
2022-11-15T05:06:49.627Z,16.97
2022-11-15T05:09:17.122Z,6.53
2022-11-15T05:11:43.651Z,6.97
2022-11-15T05:14:10.378Z,6.80
2022-11-15T05:16:37.628Z,9.50
2022-11-15T05:19:04.406Z,6.60
2022-11-15T05:21:31.531Z,6.97
2022-11-15T05:23:58.283Z,6.83
2022-11-15T05:26:25.516Z,9.10
2022-11-15T05:28:56.108Z,5.93
2022-11-15T05:31:23.067Z,7.47
2022-11-15T05:33:51.676Z,6.43
2022-11-15T05:36:29.545Z,5.67
2022-11-15T05:38:56.111Z,6.33
2022-11-15T05:41:28.158Z,7.60
2022-11-15T05:43:54.953Z,5.87
2022-11-15T05:46:21.556Z,5.70
2022-11-15T05:48:51.401Z,5.73
2022-11-15T05:51:18.769Z,5.73
2022-11-15T05:53:45.597Z,6.20
2022-11-15T05:56:13.075Z,5.73
2022-11-15T05:58:39.703Z,5.10
2022-11-15T06:01:06.857Z,7.83
2022-11-15T06:03:33.633Z,6.87
2022-11-15T06:06:00.591Z,5.20
2022-11-15T06:08:27.644Z,7.47
2022-11-15T06:10:54.279Z,7.63
2022-11-15T06:13:20.969Z,7.27
2022-11-15T06:15:49.548Z,6.90
2022-11-15T06:18:16.132Z,9.87
2022-11-15T06:20:42.796Z,6.10
2022-11-15T06:23:09.267Z,7.17
2022-11-15T06:25:35.752Z,6.63
2022-11-15T06:28:02.329Z,5.83
2022-11-15T06:30:29.412Z,5.63
2022-11-15T06:33:03.290Z,8.87
2022-11-15T06:35:30.826Z,5.13
2022-11-15T06:38:01.286Z,4.83
2022-11-15T06:40:28.023Z,4.30
2022-11-15T06:42:59.477Z,5.47
2022-11-15T06:45:26.643Z,3.90
2022-11-15T06:47:54.403Z,5.30
2022-11-15T06:50:21.004Z,4.30
2022-11-15T06:52:47.817Z,3.50
2022-11-15T06:55:14.526Z,5.80
2022-11-15T06:57:51.944Z,4.10
2022-11-15T07:00:20.180Z,3.77
2022-11-15T07:02:48.724Z,5.47
2022-11-15T07:05:15.942Z,3.37
2022-11-15T07:07:44.423Z,4.03
2022-11-15T07:10:11.493Z,4.97
2022-11-15T07:12:38.484Z,2.80
2022-11-15T07:15:05.467Z,2.63
2022-11-15T07:17:31.988Z,2.83
2022-11-15T07:19:58.616Z,3.70
2022-11-15T07:22:25.180Z,2.40
2022-11-15T07:24:51.872Z,3.20
2022-11-15T07:27:18.470Z,3.20
2022-11-15T07:29:45.175Z,2.30
2022-11-15T07:32:11.766Z,4.53
2022-11-15T07:34:38.316Z,3.60
2022-11-15T07:37:04.956Z,3.67
2022-11-15T07:39:31.603Z,4.43
2022-11-15T07:42:18.187Z,5.70
2022-11-15T07:44:44.689Z,3.20
2022-11-15T07:47:11.189Z,3.03
2022-11-15T07:49:37.849Z,4.43
2022-11-15T07:52:04.511Z,4.13
2022-11-15T07:54:31.085Z,2.87
2022-11-15T07:56:59.269Z,2.10
2022-11-15T07:59:29.013Z,2.57
2022-11-15T08:01:55.721Z,2.60
2022-11-15T08:04:22.512Z,4.17
2022-11-15T08:06:49.096Z,3.30
2022-11-15T08:09:15.776Z,2.83
2022-11-15T08:11:42.545Z,3.87
2022-11-15T08:14:08.987Z,3.17
2022-11-15T08:16:35.611Z,4.67
2022-11-15T08:19:02.259Z,2.63
2022-11-15T08:21:28.736Z,2.60
2022-11-15T08:23:55.234Z,2.67
2022-11-15T08:26:21.794Z,2.10
2022-11-15T08:28:48.430Z,2.33
2022-11-15T08:31:17.719Z,4.00
2022-11-15T08:33:44.891Z,2.90
2022-11-15T08:36:16.565Z,3.67
2022-11-15T08:38:43.538Z,2.73
2022-11-15T08:41:14.719Z,5.50
2022-11-15T08:43:41.296Z,2.80
2022-11-15T08:46:11.444Z,4.17
2022-11-15T08:48:38.018Z,3.20
2022-11-15T08:51:04.706Z,3.90
2022-11-15T08:53:31.255Z,6.33
2022-11-15T08:55:57.805Z,9.63
2022-11-15T08:58:24.372Z,2.37
2022-11-15T09:00:52.278Z,2.60
2022-11-15T09:03:18.892Z,3.07
2022-11-15T09:05:45.416Z,3.10
2022-11-15T09:08:45.576Z,2.00
2022-11-15T09:11:04.664Z,2.27
2022-11-15T09:13:31.187Z,2.63
2022-11-15T09:16:01.996Z,2.63
2022-11-15T09:18:29.109Z,1.70
2022-11-15T09:20:59.867Z,4.70
2022-11-15T09:23:27.357Z,2.97
2022-11-15T09:25:59.295Z,4.40
2022-11-15T09:28:25.767Z,1.90
2022-11-15T09:30:52.386Z,2.77
2022-11-15T09:33:18.998Z,4.67
2022-11-15T09:35:45.520Z,3.23
2022-11-15T09:38:12.092Z,3.17
2022-11-15T09:40:39.060Z,5.60
2022-11-15T09:43:38.051Z,3.17
2022-11-15T09:46:36.757Z,2.13
2022-11-15T09:49:03.824Z,1.90
2022-11-15T09:51:47.707Z,1.80
2022-11-15T09:57:23.757Z,1.77
2022-11-15T10:03:12.382Z,3.17
2022-11-15T10:05:42.039Z,2.63
2022-11-15T10:08:26.995Z,2.97
2022-11-15T10:13:51.238Z,1.80
2022-11-15T10:16:42.230Z,2.00
2022-11-15T10:19:29.517Z,2.87
2022-11-15T10:22:05.114Z,2.33
2022-11-15T10:24:37.891Z,2.87
2022-11-15T10:27:12.196Z,3.63
2022-11-15T10:29:43.974Z,3.13
2022-11-15T10:32:13.209Z,3.80
2022-11-15T10:34:39.814Z,1.60
2022-11-15T10:37:06.274Z,2.23
2022-11-15T10:39:34.635Z,2.40
2022-11-15T10:42:18.078Z,3.60
2022-11-15T10:44:46.022Z,2.67
2022-11-15T10:47:28.303Z,1.90
2022-11-15T10:50:07.449Z,3.90
2022-11-15T10:52:36.119Z,2.40
2022-11-15T10:55:17.952Z,2.30
2022-11-15T10:57:51.411Z,4.13
2022-11-15T11:00:20.844Z,7.17
2022-11-15T11:02:56.539Z,1.47
2022-11-15T11:05:42.924Z,1.63
2022-11-15T11:08:15.510Z,1.63
2022-11-15T11:11:03.808Z,5.77
2022-11-15T11:13:31.907Z,2.03
2022-11-15T11:16:02.161Z,1.90
2022-11-15T11:18:54.936Z,2.60
2022-11-15T11:21:39.938Z,1.73
2022-11-15T11:24:15.834Z,2.63
2022-11-15T11:27:01.384Z,2.93
2022-11-15T11:29:45.239Z,1.10
2022-11-15T11:32:49.319Z,4.13
2022-11-15T11:35:25.899Z,3.93
2022-11-15T11:38:08.128Z,1.20
2022-11-15T11:40:45.175Z,2.30
2022-11-15T11:43:33.623Z,1.90
2022-11-15T11:46:05.964Z,1.70
2022-11-15T11:48:40.145Z,2.20
2022-11-15T11:51:14.445Z,2.80
2022-11-15T11:54:05.310Z,5.90
2022-11-15T11:56:36.349Z,2.43
2022-11-15T11:59:55.583Z,3.23
2022-11-15T12:02:32.131Z,2.47
2022-11-15T12:05:15.485Z,2.40
2022-11-15T12:07:43.302Z,2.87
2022-11-15T12:10:17.568Z,2.07
2022-11-15T12:13:03.296Z,2.83
2022-11-15T12:15:33.911Z,1.90
2022-11-15T12:18:01.465Z,3.13
2022-11-15T12:20:38.967Z,2.23
2022-11-15T12:23:09.557Z,2.20
2022-11-15T12:25:54.059Z,2.03
2022-11-15T12:28:37.894Z,2.33
2022-11-15T12:31:28.634Z,2.77
2022-11-15T12:34:02.988Z,4.67
2022-11-15T12:36:38.118Z,1.70
2022-11-15T12:39:10.081Z,1.90
2022-11-15T12:41:37.774Z,2.37
2022-11-15T12:44:05.478Z,6.37
2022-11-15T12:46:32.034Z,1.53
2022-11-15T12:49:12.668Z,2.60
2022-11-15T12:51:48.405Z,2.27
2022-11-15T12:54:24.196Z,2.27
2022-11-15T12:57:08.666Z,2.70
2022-11-15T13:00:13.716Z,2.63
2022-11-15T13:02:42.702Z,3.67
2022-11-15T13:05:15.809Z,4.07
2022-11-15T13:07:42.363Z,3.50
2022-11-15T13:10:15.038Z,2.27
2022-11-15T13:12:47.528Z,2.97
2022-11-15T13:15:14.045Z,2.20
2022-11-15T13:17:45.613Z,3.50
2022-11-15T13:20:12.170Z,2.43
2022-11-15T13:22:52.311Z,4.00
2022-11-15T13:25:37.469Z,5.97
2022-11-15T13:28:14.812Z,2.17
2022-11-15T13:30:49.129Z,5.63
2022-11-15T13:33:20.754Z,4.83
2022-11-15T13:35:58.235Z,2.73
2022-11-15T13:38:29.443Z,4.33
2022-11-15T13:40:57.657Z,2.60
2022-11-15T13:43:24.111Z,4.83
2022-11-15T13:46:13.480Z,5.83
2022-11-15T13:48:41.878Z,2.47
2022-11-15T13:51:16.478Z,4.10
2022-11-15T13:53:47.805Z,2.67
2022-11-15T13:56:16.627Z,2.90
2022-11-15T13:58:43.336Z,1.67
2022-11-15T14:01:15.645Z,3.27
2022-11-15T14:04:02.837Z,2.70
2022-11-15T14:06:30.841Z,2.83
2022-11-15T14:09:12.867Z,5.23
2022-11-15T14:11:53.921Z,2.47
2022-11-15T14:14:23.378Z,4.93
2022-11-15T14:16:56.067Z,2.30
2022-11-15T14:19:22.694Z,3.17
2022-11-15T14:22:14.411Z,5.87
2022-11-15T14:24:42.385Z,3.70
2022-11-15T14:27:24.280Z,3.30
2022-11-15T14:29:51.146Z,3.43
2022-11-15T14:32:29.145Z,4.97
2022-11-15T14:35:00.712Z,2.90
2022-11-15T14:37:29.793Z,4.47
2022-11-15T14:39:56.789Z,3.57
2022-11-15T14:42:24.227Z,5.33
2022-11-15T14:44:51.040Z,6.97
2022-11-15T14:47:18.018Z,2.23
2022-11-15T14:49:45.104Z,3.07
2022-11-15T14:52:38.271Z,5.27
2022-11-15T14:55:33.021Z,3.17
2022-11-15T14:58:00.363Z,5.20
2022-11-15T15:00:29.820Z,3.53
2022-11-15T15:03:01.151Z,2.30
2022-11-15T15:05:30.716Z,4.73
2022-11-15T15:07:57.398Z,4.50
2022-11-15T15:10:39.567Z,5.90
2022-11-15T15:13:09.684Z,3.20
2022-11-15T15:15:41.635Z,3.83
2022-11-15T15:18:09.627Z,7.73
2022-11-15T15:20:37.739Z,4.03
2022-11-15T15:23:04.497Z,3.80
2022-11-15T15:25:35.847Z,3.63
2022-11-15T15:28:03.050Z,3.17
2022-11-15T15:30:31.332Z,3.00
2022-11-15T15:32:58.141Z,4.07
2022-11-15T15:35:24.806Z,3.53
2022-11-15T15:37:52.255Z,2.27
2022-11-15T15:40:26.457Z,3.50
2022-11-15T15:42:52.962Z,1.70
2022-11-15T15:45:20.153Z,4.50
2022-11-15T15:47:47.677Z,2.50
2022-11-15T15:50:27.640Z,1.93
2022-11-15T15:52:56.517Z,5.60
2022-11-15T15:55:23.738Z,4.93
2022-11-15T15:57:50.679Z,3.63
2022-11-15T16:00:18.929Z,3.43
2022-11-15T16:02:45.511Z,3.67
2022-11-15T16:05:12.605Z,2.53
2022-11-15T16:07:40.626Z,2.40
2022-11-15T16:10:30.061Z,2.33
2022-11-15T16:12:57.681Z,5.83
2022-11-15T16:15:27.390Z,3.73
2022-11-15T16:17:56.927Z,5.30
2022-11-15T16:20:36.031Z,4.40
2022-11-15T16:23:09.014Z,2.90
2022-11-15T16:25:56.654Z,3.67
2022-11-15T16:28:33.798Z,1.70
2022-11-15T16:31:06.277Z,2.87
2022-11-15T16:33:33.827Z,2.13
2022-11-15T16:36:01.241Z,3.17
2022-11-15T16:38:28.003Z,2.53
2022-11-15T16:40:54.872Z,2.57
2022-11-15T16:43:21.473Z,2.83
2022-11-15T16:45:48.219Z,4.30
2022-11-15T16:48:27.520Z,3.90
2022-11-15T16:50:58.392Z,2.67
2022-11-15T16:53:26.367Z,5.70
2022-11-15T16:55:53.396Z,3.40
2022-11-15T16:58:21.865Z,2.80
2022-11-15T17:00:56.146Z,3.90
2022-11-15T17:03:24.194Z,2.80
2022-11-15T17:05:51.453Z,3.07
2022-11-15T17:08:20.992Z,3.53
2022-11-15T17:10:47.580Z,4.10
2022-11-15T17:13:14.423Z,3.33
2022-11-15T17:15:41.664Z,3.33
2022-11-15T17:18:11.456Z,3.47
2022-11-15T17:20:38.199Z,4.70
2022-11-15T17:23:04.790Z,2.50
2022-11-15T17:25:31.339Z,3.23
2022-11-15T17:27:58.132Z,2.40
2022-11-15T17:30:24.851Z,2.87
2022-11-15T17:32:51.519Z,2.40
2022-11-15T17:35:18.337Z,3.97
2022-11-15T17:37:45.538Z,3.57
2022-11-15T17:40:12.433Z,2.27
2022-11-15T17:42:41.364Z,2.90
2022-11-15T17:45:10.417Z,2.13
2022-11-15T17:47:37.696Z,3.20
2022-11-15T17:50:04.575Z,2.90
2022-11-15T17:52:31.363Z,1.70
2022-11-15T17:54:58.054Z,2.73
2022-11-15T17:57:24.665Z,2.97
2022-11-15T17:59:51.377Z,2.50
2022-11-15T18:02:17.913Z,1.60
2022-11-15T18:04:45.389Z,2.07
2022-11-15T18:07:14.018Z,2.53
2022-11-15T18:09:44.064Z,2.30
2022-11-15T18:12:11.942Z,1.97
2022-11-15T18:14:38.825Z,2.73
2022-11-15T18:17:05.920Z,2.30
2022-11-15T18:19:32.475Z,2.77
2022-11-15T18:22:00.863Z,10.93
2022-11-15T18:24:28.545Z,4.00
2022-11-15T18:26:55.443Z,3.60
2022-11-15T18:29:24.664Z,2.20
2022-11-15T18:31:55.802Z,3.23
2022-11-15T18:34:23.861Z,3.30
2022-11-15T18:36:53.476Z,2.57
2022-11-15T18:39:20.630Z,4.03
2022-11-15T18:41:47.773Z,3.30
2022-11-15T18:44:14.864Z,2.00
2022-11-15T18:46:42.394Z,2.67
2022-11-15T18:49:09.755Z,3.03
2022-11-15T18:51:37.903Z,5.07
2022-11-15T18:54:04.853Z,2.27
2022-11-15T18:56:32.424Z,5.37
2022-11-15T18:59:02.112Z,2.43
2022-11-15T19:01:34.065Z,1.63
2022-11-15T19:04:14.054Z,1.83
2022-11-15T19:06:42.556Z,1.87
2022-11-15T19:09:10.802Z,1.60
2022-11-15T19:11:39.578Z,4.43
2022-11-15T19:14:11.562Z,1.90
2022-11-15T19:16:40.652Z,2.30
2022-11-15T19:19:11.982Z,7.63
2022-11-15T19:21:38.652Z,3.67
2022-11-15T19:24:05.694Z,4.17
2022-11-15T19:26:32.519Z,2.57
2022-11-15T19:29:01.670Z,2.03
2022-11-15T19:31:29.707Z,3.77
2022-11-15T19:34:01.766Z,1.67
2022-11-15T19:36:33.510Z,2.53
2022-11-15T19:39:05.280Z,3.13
2022-11-15T19:41:32.129Z,3.43
2022-11-15T19:43:59.176Z,2.30
2022-11-15T19:46:26.933Z,2.00
2022-11-15T19:48:54.087Z,4.87
2022-11-15T19:51:22.889Z,2.10
2022-11-15T19:53:54.330Z,2.63
2022-11-15T19:56:21.712Z,4.97
2022-11-15T19:58:53.341Z,3.23
2022-11-15T20:01:21.226Z,2.67
2022-11-15T20:03:48.735Z,2.80
2022-11-15T20:06:18.073Z,4.47
2022-11-15T20:08:45.998Z,2.30
2022-11-15T20:11:13.483Z,1.70
2022-11-15T20:13:40.846Z,2.00
2022-11-15T20:16:08.090Z,2.83
2022-11-15T20:18:35.109Z,2.73
2022-11-15T20:21:04.753Z,1.80
2022-11-15T20:23:31.387Z,5.00
2022-11-15T20:25:58.416Z,4.27
2022-11-15T20:28:26.826Z,3.10
2022-11-15T20:30:56.647Z,2.23
2022-11-15T20:33:23.992Z,4.07
2022-11-15T20:35:50.933Z,2.47
2022-11-15T20:38:17.979Z,2.80
2022-11-15T20:40:46.141Z,2.83
2022-11-15T20:43:16.053Z,2.87
2022-11-15T20:45:49.051Z,3.33
2022-11-15T20:48:16.180Z,4.37
2022-11-15T20:50:44.490Z,3.43
2022-11-15T20:53:13.618Z,3.40
2022-11-15T20:55:45.231Z,3.73
2022-11-15T20:58:12.046Z,7.07
2022-11-15T21:00:38.683Z,2.60
2022-11-15T21:03:08.919Z,2.53
2022-11-15T21:05:38.638Z,3.37
2022-11-15T21:08:05.625Z,2.37
2022-11-15T21:10:51.585Z,2.67
2022-11-15T21:13:18.366Z,4.60
2022-11-15T21:15:44.952Z,3.60
2022-11-15T21:18:11.631Z,3.10
2022-11-15T21:20:38.341Z,2.67
2022-11-15T21:23:04.947Z,2.87
2022-11-15T21:25:33.230Z,2.43
2022-11-15T21:27:59.947Z,4.57
2022-11-15T21:30:26.522Z,2.43
2022-11-15T21:32:53.100Z,2.40
2022-11-15T21:35:19.818Z,2.70
2022-11-15T21:37:46.332Z,3.80
2022-11-15T21:40:13.047Z,3.97
2022-11-15T21:42:39.537Z,3.67
2022-11-15T21:45:06.931Z,1.97
2022-11-15T21:47:33.498Z,4.37
2022-11-15T21:50:00.004Z,2.50
2022-11-15T21:52:26.549Z,2.13
2022-11-15T21:54:53.367Z,2.30
2022-11-15T21:57:21.218Z,3.43
2022-11-15T22:00:06.684Z,3.17
2022-11-15T22:02:33.327Z,2.27
2022-11-15T22:04:59.831Z,3.77
2022-11-15T22:07:26.604Z,6.57
2022-11-15T22:09:53.169Z,3.37
2022-11-15T22:12:19.999Z,4.37
2022-11-15T22:14:46.715Z,2.53
2022-11-15T22:17:13.314Z,3.97
2022-11-15T22:19:51.877Z,4.50
2022-11-15T22:22:18.707Z,2.23
2022-11-15T22:24:45.258Z,1.93
2022-11-15T22:27:11.857Z,3.50
2022-11-15T22:29:38.439Z,1.63
2022-11-15T22:32:05.005Z,2.07
2022-11-15T22:34:31.632Z,4.93
2022-11-15T22:37:19.874Z,3.90
2022-11-15T22:39:44.876Z,3.63
2022-11-15T22:42:11.452Z,2.13
2022-11-15T22:44:38.069Z,2.03
2022-11-15T22:47:04.657Z,3.83
2022-11-15T22:49:31.211Z,1.90
2022-11-15T22:51:58.014Z,4.47
2022-11-15T22:54:24.691Z,2.33
2022-11-15T22:56:51.406Z,2.87
2022-11-15T22:59:17.926Z,4.20
2022-11-15T23:01:44.751Z,1.80
2022-11-15T23:04:11.316Z,2.67
2022-11-15T23:06:38.060Z,2.47
2022-11-15T23:09:04.625Z,1.70
2022-11-15T23:11:49.535Z,4.23
2022-11-15T23:14:16.110Z,3.13
2022-11-15T23:16:42.796Z,2.90
2022-11-15T23:19:11.126Z,2.53
2022-11-15T23:22:01.876Z,4.33
2022-11-15T23:24:28.909Z,2.20
2022-11-15T23:26:59.149Z,2.53
2022-11-15T23:29:27.092Z,2.93
2022-11-15T23:32:13.415Z,2.43
2022-11-15T23:34:44.660Z,3.43
2022-11-15T23:37:13.660Z,3.23
2022-11-15T23:39:40.560Z,2.43
2022-11-15T23:42:09.282Z,2.63
2022-11-15T23:44:36.846Z,2.77
2022-11-15T23:47:03.441Z,2.97
2022-11-15T23:49:29.995Z,3.70
2022-11-15T23:51:56.560Z,2.47
2022-11-15T23:54:23.119Z,4.37
2022-11-15T23:56:49.840Z,6.37
2022-11-15T23:59:16.497Z,5.70
